In Rescue
 
Open Full Screen Window  High Contrast Mode
Wind Gusting 19 knots
10
May 19, 2019 1:18 PM CDT
Present Weather: Light Snow
Weather Information
Wind Direction
  360 °
Wind Speed
  10 kt (12 mph)
Wind Gust
  19 kt (22 mph)
Altimeter
29.81 in
Visibility
7 SM
Temperature
04° C
39° F
Dewpoint
00° C
32° F
Humidity
75%
1hr Rain Fall
00.02 in.
24hr Rain Fall
00.50 in.
Sky Condition
Clear
VFR

METAR KCBG 191818Z AUTO 36010G19KT 7SM -SN CLR 04/00 A2981 RMK AO2 P0002 P0002

FAA Disclaimer: The data displayed is for advisory purposes only and is not to be used for flight planning or operations.